createdAt,value
2023-01-25T00:00:39.755Z,13.73
2023-01-25T00:03:14.729Z,13.67
2023-01-25T00:05:58.608Z,13.13
2023-01-25T00:08:33.607Z,14.50
2023-01-25T00:11:08.459Z,14.60
2023-01-25T00:13:43.831Z,13.43
2023-01-25T00:16:18.743Z,14.63
2023-01-25T00:18:53.833Z,13.87
2023-01-25T00:21:28.984Z,13.20
2023-01-25T00:24:05.395Z,13.33
2023-01-25T00:26:43.695Z,14.33
2023-01-25T00:29:18.697Z,14.27
2023-01-25T00:32:14.511Z,14.40
2023-01-25T00:34:51.235Z,14.80
2023-01-25T00:37:47.546Z,13.93
2023-01-25T00:40:22.401Z,15.00
2023-01-25T00:42:57.261Z,13.47
2023-01-25T00:45:32.139Z,13.27
2023-01-25T00:48:07.677Z,13.13
2023-01-25T00:50:42.562Z,13.87
2023-01-25T00:53:17.445Z,13.70
2023-01-25T00:55:55.306Z,13.20
2023-01-25T00:58:30.530Z,13.47
2023-01-25T01:01:05.868Z,13.07
2023-01-25T01:03:40.932Z,12.10
2023-01-25T01:06:15.773Z,12.57
2023-01-25T01:08:50.744Z,12.87
2023-01-25T01:11:25.598Z,12.50
2023-01-25T01:14:00.519Z,13.30
2023-01-25T01:16:35.591Z,14.00
2023-01-25T01:19:10.767Z,12.33
2023-01-25T01:21:45.664Z,12.33
2023-01-25T01:24:20.643Z,13.50
2023-01-25T01:26:55.481Z,12.57
2023-01-25T01:29:30.360Z,12.30
2023-01-25T01:32:05.737Z,12.27
2023-01-25T01:34:40.715Z,12.10
2023-01-25T01:37:15.695Z,13.10
2023-01-25T01:39:52.205Z,11.93
2023-01-25T01:42:27.145Z,11.83
2023-01-25T01:45:02.461Z,12.40
2023-01-25T01:47:45.912Z,12.07
2023-01-25T01:50:24.727Z,11.43
2023-01-25T01:53:00.870Z,12.00
2023-01-25T01:55:37.537Z,12.00
2023-01-25T01:58:12.534Z,11.17
2023-01-25T02:00:47.486Z,12.33
2023-01-25T02:03:23.056Z,12.30
2023-01-25T02:06:12.877Z,12.47
2023-01-25T02:08:48.027Z,11.90
2023-01-25T02:11:24.144Z,13.30
2023-01-25T02:14:00.779Z,12.03
2023-01-25T02:16:35.660Z,11.97
2023-01-25T02:19:26.877Z,12.30
2023-01-25T02:22:07.717Z,12.00
2023-01-25T02:24:56.008Z,11.80
2023-01-25T02:27:30.901Z,12.43
2023-01-25T02:30:06.863Z,10.73
2023-01-25T02:32:41.750Z,13.00
2023-01-25T02:35:36.466Z,11.00
2023-01-25T02:38:15.584Z,11.37
2023-01-25T02:41:05.272Z,11.80
2023-01-25T02:43:40.476Z,12.77
2023-01-25T02:46:29.776Z,11.23
2023-01-25T02:49:07.693Z,11.80
2023-01-25T02:51:46.794Z,11.07
2023-01-25T02:54:22.510Z,12.20
2023-01-25T02:56:58.884Z,13.10
2023-01-25T02:59:37.437Z,11.13
2023-01-25T03:02:12.408Z,12.73
2023-01-25T03:04:48.204Z,11.40
2023-01-25T03:07:23.123Z,10.13
2023-01-25T03:09:58.190Z,11.90
2023-01-25T03:12:33.558Z,12.53
2023-01-25T03:15:09.546Z,12.00
2023-01-25T03:17:44.944Z,11.17
2023-01-25T03:20:20.464Z,11.57
2023-01-25T03:22:55.902Z,11.73
2023-01-25T03:25:31.089Z,12.37
2023-01-25T03:28:13.792Z,11.10
2023-01-25T03:30:53.529Z,10.50
2023-01-25T03:33:29.340Z,10.20
2023-01-25T03:36:05.145Z,10.97
2023-01-25T03:38:40.013Z,11.17
2023-01-25T03:41:15.994Z,11.23
2023-01-25T03:43:53.210Z,12.00
2023-01-25T03:46:28.184Z,11.00
2023-01-25T03:49:03.200Z,12.30
2023-01-25T03:51:39.132Z,11.63
2023-01-25T03:54:15.244Z,10.53
2023-01-25T03:56:50.142Z,11.40
2023-01-25T03:59:31.677Z,11.33
2023-01-25T04:02:07.142Z,11.23
2023-01-25T04:04:42.060Z,11.57
2023-01-25T04:07:17.795Z,9.73
2023-01-25T04:09:52.718Z,11.00
2023-01-25T04:12:27.603Z,12.50
2023-01-25T04:15:02.585Z,12.93
2023-01-25T04:17:37.681Z,11.40
2023-01-25T04:20:30.209Z,9.67
2023-01-25T04:23:07.071Z,11.43
2023-01-25T04:25:57.425Z,10.60
2023-01-25T04:28:34.260Z,10.73
2023-01-25T04:31:09.626Z,9.27
2023-01-25T04:33:50.110Z,9.30
2023-01-25T04:36:27.670Z,10.30
2023-01-25T04:39:02.599Z,10.13
2023-01-25T04:41:37.596Z,10.40
2023-01-25T04:44:13.982Z,9.67
2023-01-25T04:46:49.878Z,9.40
2023-01-25T04:49:26.185Z,9.13
2023-01-25T04:52:01.805Z,9.70
2023-01-25T04:54:36.692Z,10.00
2023-01-25T04:57:13.274Z,8.57
2023-01-25T04:59:50.975Z,8.70
2023-01-25T05:02:27.455Z,9.40
2023-01-25T05:05:03.445Z,8.70
2023-01-25T05:07:39.136Z,9.07
2023-01-25T05:10:15.186Z,8.93
2023-01-25T05:13:05.984Z,9.33
2023-01-25T05:15:41.012Z,9.03
2023-01-25T05:18:16.417Z,8.57
2023-01-25T05:20:56.199Z,8.13
2023-01-25T05:23:33.241Z,9.17
2023-01-25T05:26:27.143Z,8.80
2023-01-25T05:29:02.013Z,9.20
2023-01-25T05:31:46.063Z,9.17
2023-01-25T05:34:20.982Z,8.20
2023-01-25T05:36:56.670Z,8.63
2023-01-25T05:39:31.825Z,9.23
2023-01-25T05:42:13.810Z,8.67
2023-01-25T05:44:49.033Z,9.07
2023-01-25T05:47:25.173Z,8.53
2023-01-25T05:50:03.148Z,7.50
2023-01-25T05:52:52.914Z,8.77
2023-01-25T05:55:27.784Z,7.37
2023-01-25T05:58:03.337Z,9.20
2023-01-25T06:00:38.235Z,8.43
2023-01-25T06:03:13.210Z,7.90
2023-01-25T06:05:48.426Z,7.20
2023-01-25T06:08:24.426Z,8.50
2023-01-25T06:11:07.867Z,6.60
2023-01-25T06:13:43.497Z,7.33
2023-01-25T06:16:19.198Z,8.27
2023-01-25T06:19:12.919Z,7.27
2023-01-25T06:22:00.928Z,7.50
2023-01-25T06:24:35.748Z,7.70
2023-01-25T06:27:12.603Z,7.07
2023-01-25T06:29:47.500Z,7.93
2023-01-25T06:32:24.057Z,7.43
2023-01-25T06:34:58.964Z,8.17
2023-01-25T06:37:33.890Z,8.70
2023-01-25T06:40:09.652Z,8.20
2023-01-25T06:42:45.248Z,8.07
2023-01-25T06:45:20.487Z,7.20
2023-01-25T06:47:55.311Z,7.37
2023-01-25T06:50:30.754Z,7.10
2023-01-25T06:53:05.622Z,7.30
2023-01-25T06:55:40.460Z,7.20
2023-01-25T06:58:15.305Z,7.73
2023-01-25T07:00:50.144Z,6.43
2023-01-25T07:03:25.027Z,7.67
2023-01-25T07:06:06.613Z,7.47
2023-01-25T07:08:41.473Z,7.97
2023-01-25T07:11:18.960Z,7.50
2023-01-25T07:13:53.957Z,7.77
2023-01-25T07:16:29.083Z,7.60
2023-01-25T07:19:05.905Z,6.57
2023-01-25T07:21:40.870Z,6.80
2023-01-25T07:24:18.498Z,9.13
2023-01-25T07:26:53.415Z,6.53
2023-01-25T07:29:28.287Z,6.67
2023-01-25T07:32:03.205Z,8.50
2023-01-25T07:34:38.775Z,8.13
2023-01-25T07:37:13.611Z,7.47
2023-01-25T07:39:50.594Z,7.20
2023-01-25T07:42:25.479Z,7.63
2023-01-25T07:45:15.438Z,7.30
2023-01-25T07:47:50.392Z,7.43
2023-01-25T07:50:29.327Z,6.70
2023-01-25T07:53:04.251Z,6.60
2023-01-25T07:55:39.539Z,7.57
2023-01-25T07:58:14.871Z,6.97
2023-01-25T08:00:49.739Z,6.63
2023-01-25T08:03:24.600Z,7.40
2023-01-25T08:05:59.647Z,7.60
2023-01-25T08:08:37.623Z,6.30
2023-01-25T08:11:23.558Z,5.90
2023-01-25T08:13:58.717Z,7.73
2023-01-25T08:16:33.997Z,6.60
2023-01-25T08:19:11.053Z,7.33
2023-01-25T08:21:45.951Z,6.03
2023-01-25T08:24:21.119Z,6.70
2023-01-25T08:26:56.153Z,6.17
2023-01-25T08:29:31.078Z,6.70
2023-01-25T08:32:08.961Z,6.90
2023-01-25T08:34:43.835Z,7.00
2023-01-25T08:37:18.695Z,6.90
2023-01-25T08:39:53.624Z,6.73
2023-01-25T08:42:28.600Z,7.10
2023-01-25T08:45:04.069Z,6.90
2023-01-25T08:47:38.918Z,6.33
2023-01-25T08:50:13.840Z,7.00
2023-01-25T08:52:48.746Z,6.40
2023-01-25T08:55:23.623Z,6.03
2023-01-25T08:57:58.483Z,6.97
2023-01-25T09:00:33.383Z,6.17
2023-01-25T09:03:08.754Z,6.80
2023-01-25T09:05:43.954Z,6.70
2023-01-25T09:08:18.795Z,6.13
2023-01-25T09:10:53.677Z,6.00
2023-01-25T09:13:29.208Z,5.90
2023-01-25T09:16:10.694Z,7.00
2023-01-25T09:18:45.751Z,6.80
2023-01-25T09:21:20.987Z,6.10
2023-01-25T09:24:11.984Z,6.30
2023-01-25T09:26:56.011Z,5.87
2023-01-25T09:29:34.046Z,6.83
2023-01-25T09:32:08.973Z,7.00
2023-01-25T09:35:02.176Z,6.27
2023-01-25T09:37:37.058Z,6.47
2023-01-25T09:40:22.543Z,6.80
2023-01-25T09:43:06.216Z,6.00
2023-01-25T09:45:41.154Z,7.30
2023-01-25T09:48:39.130Z,6.83
2023-01-25T09:51:31.127Z,6.33
2023-01-25T09:54:10.386Z,6.90
2023-01-25T09:56:49.811Z,6.80
2023-01-25T09:59:30.605Z,7.27
2023-01-25T10:02:38.638Z,6.87
2023-01-25T10:05:20.433Z,5.80
2023-01-25T10:08:15.998Z,6.47
2023-01-25T10:11:00.398Z,8.00
2023-01-25T10:13:35.288Z,6.27
2023-01-25T10:16:29.347Z,6.30
2023-01-25T10:19:35.844Z,7.43
2023-01-25T10:22:25.058Z,7.40
2023-01-25T10:25:02.043Z,7.03
2023-01-25T10:27:57.659Z,7.10
2023-01-25T10:31:13.927Z,6.53
2023-01-25T10:33:49.502Z,6.90
2023-01-25T10:36:30.104Z,7.53
2023-01-25T10:39:07.624Z,8.10
2023-01-25T10:41:49.727Z,8.13
2023-01-25T10:44:26.255Z,7.60
2023-01-25T10:47:32.192Z,7.50
2023-01-25T10:50:08.085Z,7.90
2023-01-25T10:52:58.376Z,7.57
2023-01-25T10:55:34.279Z,8.73
2023-01-25T10:58:40.152Z,9.07
2023-01-25T11:01:33.222Z,9.27
2023-01-25T11:04:35.205Z,9.10
2023-01-25T11:07:27.433Z,9.00
2023-01-25T11:10:02.300Z,8.10
2023-01-25T11:12:37.184Z,9.20
2023-01-25T11:15:25.643Z,9.47
2023-01-25T11:18:07.038Z,8.70
2023-01-25T11:20:41.892Z,8.80
2023-01-25T11:23:25.459Z,9.30
2023-01-25T11:26:20.597Z,9.13
2023-01-25T11:29:17.899Z,8.90
2023-01-25T11:31:55.997Z,9.73
2023-01-25T11:34:31.014Z,9.30
2023-01-25T11:37:19.004Z,9.03
2023-01-25T11:40:07.942Z,10.17
2023-01-25T11:43:43.586Z,9.83
2023-01-25T11:46:56.282Z,9.07
2023-01-25T11:49:59.964Z,8.80
2023-01-25T11:53:00.618Z,9.30
2023-01-25T11:55:45.371Z,8.63
2023-01-25T11:58:39.469Z,9.20
2023-01-25T12:01:36.476Z,9.20
2023-01-25T12:04:45.309Z,9.53
2023-01-25T12:08:03.500Z,8.50
2023-01-25T12:11:12.412Z,8.17
2023-01-25T12:14:23.825Z,8.07
2023-01-25T12:17:23.808Z,8.10
2023-01-25T12:20:49.047Z,7.63
2023-01-25T12:23:56.783Z,10.30
2023-01-25T12:27:04.474Z,9.43
2023-01-25T12:30:13.793Z,9.20
2023-01-25T12:33:18.158Z,8.07
2023-01-25T12:36:13.954Z,9.00
2023-01-25T12:39:11.031Z,9.20
2023-01-25T12:42:06.618Z,8.13
2023-01-25T12:44:59.306Z,7.63
2023-01-25T12:47:46.577Z,8.77
2023-01-25T12:50:40.626Z,7.67
2023-01-25T12:53:27.969Z,8.23
2023-01-25T12:56:07.593Z,9.20
2023-01-25T12:58:55.305Z,10.20
2023-01-25T13:01:54.388Z,9.87
2023-01-25T13:05:14.869Z,11.03
2023-01-25T13:08:43.220Z,10.07
2023-01-25T13:11:30.324Z,9.90
2023-01-25T13:14:17.596Z,10.07
2023-01-25T13:17:19.906Z,10.30
2023-01-25T13:19:54.860Z,9.17
2023-01-25T13:22:44.920Z,9.87
2023-01-25T13:25:23.993Z,9.47
2023-01-25T13:28:41.628Z,9.90
2023-01-25T13:31:51.439Z,10.13
2023-01-25T13:34:36.169Z,10.07
2023-01-25T13:37:21.862Z,11.13
2023-01-25T13:40:19.432Z,10.80
2023-01-25T13:43:18.651Z,11.00
2023-01-25T13:45:53.858Z,11.47
2023-01-25T13:48:35.820Z,12.60
2023-01-25T13:51:14.730Z,11.73
2023-01-25T13:53:58.424Z,11.40
2023-01-25T13:56:35.586Z,11.70
2023-01-25T13:59:27.828Z,12.50
2023-01-25T14:02:03.021Z,11.30
2023-01-25T14:04:37.919Z,12.00
2023-01-25T14:07:18.466Z,12.30
2023-01-25T14:09:53.359Z,13.17
2023-01-25T14:12:39.633Z,10.73
2023-01-25T14:15:33.054Z,12.63
2023-01-25T14:18:21.165Z,10.20
2023-01-25T14:21:17.402Z,11.70
2023-01-25T14:23:52.687Z,11.73
2023-01-25T14:26:28.434Z,11.33
2023-01-25T14:29:03.730Z,11.63
2023-01-25T14:31:40.349Z,11.50
2023-01-25T14:34:20.524Z,11.20
2023-01-25T14:37:22.194Z,11.87
2023-01-25T14:39:57.077Z,11.67
2023-01-25T14:42:32.859Z,11.80
2023-01-25T14:45:13.086Z,12.93
2023-01-25T14:47:58.267Z,12.07
2023-01-25T14:50:38.640Z,13.10
2023-01-25T14:53:23.737Z,12.10
2023-01-25T14:55:58.744Z,11.93
2023-01-25T14:58:33.667Z,13.20
2023-01-25T15:01:39.782Z,11.40
2023-01-25T15:04:14.664Z,11.57
2023-01-25T15:06:56.222Z,12.43
2023-01-25T15:09:37.696Z,12.70
2023-01-25T15:12:31.283Z,11.93
2023-01-25T15:15:21.492Z,13.23
2023-01-25T15:17:56.864Z,13.60
2023-01-25T15:20:40.096Z,13.03
2023-01-25T15:23:26.664Z,13.40
2023-01-25T15:26:03.675Z,13.00
2023-01-25T15:28:38.592Z,13.40
2023-01-25T15:31:20.025Z,12.43
2023-01-25T15:33:56.321Z,12.87
2023-01-25T15:36:32.998Z,13.50
2023-01-25T15:39:17.139Z,13.50
2023-01-25T15:41:51.995Z,13.40
2023-01-25T15:44:26.922Z,12.73
2023-01-25T15:47:01.817Z,13.20
2023-01-25T15:49:39.426Z,15.03
2023-01-25T15:52:14.292Z,14.90
2023-01-25T15:54:59.910Z,14.37
2023-01-25T15:57:36.998Z,13.30
2023-01-25T16:00:23.074Z,14.27
2023-01-25T16:02:57.916Z,14.33
2023-01-25T16:05:32.781Z,15.33
2023-01-25T16:08:15.893Z,14.40
2023-01-25T16:10:51.351Z,14.47
2023-01-25T16:13:26.245Z,14.67
2023-01-25T16:16:01.125Z,16.00
2023-01-25T16:18:36.048Z,16.40
2023-01-25T16:21:12.556Z,16.23
2023-01-25T16:23:47.578Z,18.10
2023-01-25T16:26:25.629Z,17.50
2023-01-25T16:29:00.505Z,18.97
2023-01-25T16:31:35.520Z,17.20
2023-01-25T16:34:10.496Z,15.43
2023-01-25T16:36:50.171Z,16.20
2023-01-25T16:39:28.151Z,16.20
2023-01-25T16:42:03.014Z,14.17
2023-01-25T16:44:39.003Z,14.90
2023-01-25T16:47:15.521Z,15.20
2023-01-25T16:49:50.378Z,16.43
2023-01-25T16:52:25.237Z,15.93
2023-01-25T16:55:00.176Z,16.50
2023-01-25T16:57:35.031Z,15.80
2023-01-25T17:00:13.663Z,15.50
2023-01-25T17:02:58.728Z,15.90
2023-01-25T17:05:38.298Z,15.73
2023-01-25T17:08:13.167Z,14.30
2023-01-25T17:10:48.558Z,12.77
2023-01-25T17:13:24.069Z,12.17
2023-01-25T17:16:00.887Z,14.20
2023-01-25T17:18:35.828Z,13.90
2023-01-25T17:21:14.464Z,10.67
2023-01-25T17:23:49.749Z,13.73
2023-01-25T17:26:25.939Z,12.80
2023-01-25T17:29:02.758Z,13.87
2023-01-25T17:31:39.687Z,12.37
2023-01-25T17:34:21.887Z,11.97
2023-01-25T17:36:56.780Z,12.67
2023-01-25T17:39:32.933Z,12.33
2023-01-25T17:42:10.735Z,12.20
2023-01-25T17:44:45.588Z,11.70
2023-01-25T17:47:20.447Z,13.20
2023-01-25T17:49:55.298Z,13.83
2023-01-25T17:52:30.168Z,13.00
2023-01-25T17:55:06.019Z,13.90
2023-01-25T17:57:40.871Z,12.60
2023-01-25T18:00:16.396Z,12.07
2023-01-25T18:02:51.949Z,13.60
2023-01-25T18:05:28.553Z,13.70
2023-01-25T18:08:03.493Z,12.40
2023-01-25T18:10:41.396Z,12.50
2023-01-25T18:13:16.257Z,12.80
2023-01-25T18:15:55.273Z,11.97
2023-01-25T18:18:30.184Z,12.77
2023-01-25T18:21:15.418Z,13.53
2023-01-25T18:23:53.969Z,13.77
2023-01-25T18:26:34.311Z,15.53
2023-01-25T18:30:07.364Z,14.50
2023-01-25T18:32:42.224Z,14.60
2023-01-25T18:35:17.387Z,14.43
2023-01-25T18:37:52.413Z,13.60
2023-01-25T18:40:27.376Z,13.33
2023-01-25T18:43:03.668Z,13.40
2023-01-25T18:45:39.457Z,13.27
2023-01-25T18:48:15.698Z,14.10
2023-01-25T18:50:50.641Z,13.30
2023-01-25T18:53:27.154Z,12.97
2023-01-25T18:56:08.350Z,13.30
2023-01-25T18:58:44.428Z,13.97
2023-01-25T19:01:22.288Z,14.23
2023-01-25T19:03:58.506Z,14.40
2023-01-25T19:06:33.364Z,13.70
2023-01-25T19:09:08.296Z,13.97
2023-01-25T19:11:43.176Z,12.90
2023-01-25T19:14:18.319Z,12.77
2023-01-25T19:16:53.423Z,13.43
2023-01-25T19:19:33.622Z,13.27
2023-01-25T19:22:08.576Z,14.00
2023-01-25T19:24:43.510Z,12.97
2023-01-25T19:27:18.467Z,12.20
2023-01-25T19:29:53.521Z,12.17
2023-01-25T19:32:28.584Z,13.40
2023-01-25T19:35:06.239Z,13.87
2023-01-25T19:37:41.223Z,13.70
2023-01-25T19:40:17.240Z,14.03
2023-01-25T19:42:55.378Z,14.33
2023-01-25T19:45:30.233Z,14.17
2023-01-25T19:48:06.577Z,13.70
2023-01-25T19:50:42.628Z,13.40
2023-01-25T19:53:17.465Z,13.20
2023-01-25T19:55:52.408Z,13.13
2023-01-25T19:58:27.322Z,13.27
2023-01-25T20:01:23.775Z,12.60
2023-01-25T20:03:59.525Z,12.90
2023-01-25T20:06:34.755Z,13.50
2023-01-25T20:09:17.297Z,13.70
2023-01-25T20:11:56.109Z,11.63
2023-01-25T20:14:31.229Z,12.30
2023-01-25T20:17:07.255Z,12.03
2023-01-25T20:19:42.688Z,12.97
2023-01-25T20:22:17.863Z,12.77
2023-01-25T20:24:52.737Z,11.90
2023-01-25T20:27:27.608Z,12.10
2023-01-25T20:30:02.584Z,13.13
2023-01-25T20:32:37.539Z,13.43
2023-01-25T20:35:12.657Z,15.47
2023-01-25T20:37:49.330Z,13.20
2023-01-25T20:40:24.315Z,13.83
2023-01-25T20:42:59.357Z,14.17
2023-01-25T20:45:34.863Z,13.87
2023-01-25T20:48:09.733Z,14.43
2023-01-25T20:50:44.588Z,14.73
2023-01-25T20:53:19.452Z,14.60
2023-01-25T20:55:55.741Z,15.23
2023-01-25T20:58:30.621Z,16.30
2023-01-25T21:01:19.649Z,13.90
2023-01-25T21:03:57.246Z,13.43
2023-01-25T21:06:34.252Z,12.93
2023-01-25T21:09:11.557Z,12.20
2023-01-25T21:11:46.553Z,13.87
2023-01-25T21:14:21.430Z,14.53
2023-01-25T21:16:56.372Z,13.63
2023-01-25T21:19:31.508Z,14.30
2023-01-25T21:22:06.385Z,13.40
2023-01-25T21:24:41.361Z,11.90
2023-01-25T21:27:16.494Z,14.97
2023-01-25T21:29:51.683Z,14.37
2023-01-25T21:32:26.549Z,15.53
2023-01-25T21:35:01.508Z,16.17
2023-01-25T21:37:36.419Z,16.23
2023-01-25T21:40:12.135Z,14.87
2023-01-25T21:42:47.689Z,15.70
2023-01-25T21:45:41.597Z,13.77
2023-01-25T21:48:36.422Z,16.67
2023-01-25T21:51:31.515Z,16.20
2023-01-25T21:54:06.424Z,13.63
2023-01-25T21:56:41.448Z,14.60
2023-01-25T21:59:16.670Z,16.53
2023-01-25T22:01:53.393Z,16.23
2023-01-25T22:04:28.322Z,14.90
2023-01-25T22:07:04.974Z,16.50
2023-01-25T22:09:39.857Z,16.37
2023-01-25T22:12:14.759Z,16.00
2023-01-25T22:14:49.629Z,16.73
2023-01-25T22:17:25.623Z,16.20
2023-01-25T22:20:00.479Z,16.00
2023-01-25T22:22:35.383Z,16.10
2023-01-25T22:25:10.328Z,15.77
2023-01-25T22:27:59.684Z,16.13
2023-01-25T22:30:34.545Z,16.20
2023-01-25T22:33:09.444Z,16.87
2023-01-25T22:35:44.291Z,17.60
2023-01-25T22:38:19.149Z,19.73
2023-01-25T22:40:56.413Z,19.20
2023-01-25T22:43:31.772Z,19.27
2023-01-25T22:46:10.551Z,20.37
2023-01-25T22:48:46.242Z,18.63
2023-01-25T22:51:25.586Z,18.27
2023-01-25T22:54:00.871Z,18.73
2023-01-25T22:56:35.850Z,18.77
2023-01-25T22:59:14.689Z,19.87
2023-01-25T23:01:49.590Z,20.07
2023-01-25T23:04:24.550Z,19.37
2023-01-25T23:07:02.854Z,17.20
2023-01-25T23:09:39.604Z,17.27
2023-01-25T23:12:15.479Z,17.67
2023-01-25T23:14:54.064Z,16.90
2023-01-25T23:17:47.462Z,18.30
2023-01-25T23:20:22.316Z,19.10
2023-01-25T23:22:57.224Z,19.03
2023-01-25T23:25:32.274Z,21.53
2023-01-25T23:28:07.157Z,21.83
2023-01-25T23:30:42.043Z,20.33
2023-01-25T23:33:16.978Z,19.83
2023-01-25T23:35:51.861Z,19.97
2023-01-25T23:38:26.724Z,20.10
2023-01-25T23:41:01.759Z,20.07
2023-01-25T23:43:37.015Z,19.77
2023-01-25T23:46:14.508Z,18.40
2023-01-25T23:48:49.406Z,21.23
2023-01-25T23:51:24.608Z,17.03
2023-01-25T23:53:59.495Z,17.07
2023-01-25T23:56:34.383Z,17.60
2023-01-25T23:59:09.304Z,17.73
